createdAt,value
2019-02-12T00:00:06.062Z,101527.80
2019-02-12T00:02:34.518Z,101535.95
2019-02-12T00:05:04.975Z,101533.61
2019-02-12T00:07:33.031Z,101533.72
2019-02-12T00:10:01.082Z,101535.02
2019-02-12T00:12:29.154Z,101531.70
2019-02-12T00:14:57.224Z,101534.77
2019-02-12T00:17:25.293Z,101540.53
2019-02-12T00:19:53.399Z,101533.75
2019-02-12T00:22:21.412Z,101540.63
2019-02-12T00:24:49.528Z,101546.88
2019-02-12T00:27:18.091Z,101546.58
2019-02-12T00:29:48.572Z,101548.27
2019-02-12T00:32:16.696Z,101549.11
2019-02-12T00:34:44.791Z,101553.47
2019-02-12T00:37:12.829Z,101559.86
2019-02-12T00:39:41.184Z,101556.80
2019-02-12T00:42:10.600Z,101548.89
2019-02-12T00:44:38.678Z,101552.80
2019-02-12T00:47:06.723Z,101556.33
2019-02-12T00:49:34.788Z,101547.23
2019-02-12T00:52:02.842Z,101556.33
2019-02-12T00:54:30.871Z,101561.16
2019-02-12T00:56:58.944Z,101557.38
2019-02-12T00:59:26.992Z,101561.16
2019-02-12T01:01:55.366Z,101559.39
2019-02-12T01:04:23.704Z,101563.30
2019-02-12T01:06:51.801Z,101558.09
2019-02-12T01:09:19.841Z,101565.42
2019-02-12T01:11:47.913Z,101572.19
2019-02-12T01:14:16.548Z,101575.72
2019-02-12T01:16:44.629Z,101581.75
2019-02-12T01:19:13.194Z,101587.31
2019-02-12T01:21:41.284Z,101592.80
2019-02-12T01:24:11.897Z,101597.42
2019-02-12T01:26:39.994Z,101597.61
2019-02-12T01:29:08.056Z,101598.91
2019-02-12T01:31:36.584Z,101597.61
2019-02-12T01:34:04.961Z,101602.23
2019-02-12T01:36:33.055Z,101605.20
2019-02-12T01:39:01.112Z,101608.63
2019-02-12T01:41:31.385Z,101608.27
2019-02-12T01:43:59.403Z,101610.22
2019-02-12T01:46:27.455Z,101608.82
2019-02-12T01:48:55.484Z,101606.12
2019-02-12T01:51:23.538Z,101605.08
2019-02-12T01:53:52.037Z,101607.97
2019-02-12T01:56:20.111Z,101601.73
2019-02-12T01:58:48.485Z,101610.28
2019-02-12T02:01:16.554Z,101604.69
2019-02-12T02:03:44.663Z,101615.84
2019-02-12T02:06:12.767Z,101609.42
2019-02-12T02:08:40.788Z,101613.79
2019-02-12T02:11:08.866Z,101621.13
2019-02-12T02:13:36.940Z,101623.72
2019-02-12T02:16:05.024Z,101621.13
2019-02-12T02:18:33.045Z,101619.82
2019-02-12T02:21:01.368Z,101621.98
2019-02-12T02:23:29.385Z,101622.81
2019-02-12T02:25:57.498Z,101616.78
2019-02-12T02:28:26.323Z,101625.02
2019-02-12T02:30:54.404Z,101631.92
2019-02-12T02:33:22.469Z,101629.39
2019-02-12T02:35:50.975Z,101628.48
2019-02-12T02:38:19.046Z,101625.41
2019-02-12T02:40:47.131Z,101628.09
2019-02-12T02:43:15.199Z,101623.72
2019-02-12T02:45:43.225Z,101623.36
2019-02-12T02:48:11.370Z,101631.52
2019-02-12T02:50:39.731Z,101625.95
2019-02-12T02:53:07.846Z,101633.75
2019-02-12T02:55:35.895Z,101642.86
2019-02-12T02:58:03.956Z,101644.98
2019-02-12T03:00:32.097Z,101644.98
2019-02-12T03:03:00.238Z,101648.05
2019-02-12T03:05:28.466Z,101644.63
2019-02-12T03:07:56.968Z,101652.53
2019-02-12T03:10:25.024Z,101655.59
2019-02-12T03:12:53.109Z,101661.63
2019-02-12T03:15:21.155Z,101665.16
2019-02-12T03:17:49.308Z,101665.63
2019-02-12T03:20:17.368Z,101671.30
2019-02-12T03:22:45.871Z,101667.03
2019-02-12T03:25:13.909Z,101675.38
2019-02-12T03:27:42.049Z,101676.77
2019-02-12T03:30:10.635Z,101671.67
2019-02-12T03:32:39.023Z,101672.22
2019-02-12T03:35:07.534Z,101683.48
2019-02-12T03:37:35.641Z,101680.12
2019-02-12T03:40:05.558Z,101687.08
2019-02-12T03:42:34.486Z,101685.78
2019-02-12T03:45:02.894Z,101692.48
2019-02-12T03:47:31.302Z,101690.83
2019-02-12T03:49:59.417Z,101700.20
2019-02-12T03:52:27.503Z,101705.09
2019-02-12T03:54:55.890Z,101705.20
2019-02-12T03:57:24.129Z,101705.66
2019-02-12T03:59:52.580Z,101705.56
2019-02-12T04:02:20.654Z,101698.70
2019-02-12T04:04:48.754Z,101704.00
2019-02-12T04:07:16.832Z,101704.09
2019-02-12T04:09:44.948Z,101708.53
2019-02-12T04:12:12.998Z,101714.59
2019-02-12T04:14:41.091Z,101716.25
2019-02-12T04:17:09.159Z,101712.36
2019-02-12T04:19:37.230Z,101713.66
2019-02-12T04:22:05.334Z,101718.75
2019-02-12T04:24:33.837Z,101727.38
2019-02-12T04:27:02.787Z,101729.88
2019-02-12T04:29:32.266Z,101720.42
2019-02-12T04:32:00.359Z,101716.72
2019-02-12T04:34:28.508Z,101715.48
2019-02-12T04:36:56.598Z,101712.99
2019-02-12T04:39:24.694Z,101706.50
2019-02-12T04:41:52.760Z,101701.77
2019-02-12T04:44:21.006Z,101701.77
2019-02-12T04:46:49.058Z,101703.53
2019-02-12T04:49:17.172Z,101704.47
2019-02-12T04:51:45.277Z,101706.23
2019-02-12T04:54:13.369Z,101710.76
2019-02-12T04:56:41.456Z,101704.63
2019-02-12T04:59:09.897Z,101707.33
2019-02-12T05:01:38.117Z,101710.86
2019-02-12T05:04:08.373Z,101713.92
2019-02-12T05:06:37.164Z,101709.75
2019-02-12T05:09:19.530Z,101720.21
2019-02-12T05:12:02.731Z,101718.64
2019-02-12T05:14:30.820Z,101714.47
2019-02-12T05:16:59.294Z,101722.33
2019-02-12T05:19:27.397Z,101721.13
2019-02-12T05:21:55.505Z,101726.79
2019-02-12T05:24:36.632Z,101735.78
2019-02-12T05:27:05.105Z,101739.78
2019-02-12T05:29:33.507Z,101747.57
2019-02-12T05:32:01.588Z,101751.09
2019-02-12T05:34:30.037Z,101752.03
2019-02-12T05:36:59.798Z,101751.66
2019-02-12T05:39:28.044Z,101744.59
2019-02-12T05:41:56.188Z,101737.80
2019-02-12T05:44:24.262Z,101741.32
2019-02-12T05:46:52.585Z,101748.64
2019-02-12T05:49:22.418Z,101751.24
2019-02-12T05:51:50.462Z,101751.24
2019-02-12T05:54:18.525Z,101754.77
2019-02-12T05:56:46.597Z,101750.97
2019-02-12T05:59:14.679Z,101749.30
2019-02-12T06:01:42.770Z,101754.12
2019-02-12T06:04:10.888Z,101747.70
2019-02-12T06:06:38.957Z,101746.41
2019-02-12T06:09:07.155Z,101742.05
2019-02-12T06:11:35.539Z,101733.02
2019-02-12T06:14:03.630Z,101725.33
2019-02-12T06:16:31.695Z,101730.77
2019-02-12T06:18:59.739Z,101723.91
2019-02-12T06:21:27.798Z,101737.83
2019-02-12T06:23:55.867Z,101737.09
2019-02-12T06:26:24.347Z,101734.75
2019-02-12T06:28:52.429Z,101732.34
2019-02-12T06:31:20.490Z,101736.85
2019-02-12T06:33:48.930Z,101734.81
2019-02-12T06:36:16.996Z,101727.59
2019-02-12T06:38:45.428Z,101732.02
2019-02-12T06:41:13.823Z,101731.27
2019-02-12T06:43:41.895Z,101729.86
2019-02-12T06:46:09.966Z,101735.70
2019-02-12T06:48:38.227Z,101742.24
2019-02-12T06:51:06.307Z,101738.45
2019-02-12T06:53:35.489Z,101750.12
2019-02-12T06:56:03.587Z,101750.12
2019-02-12T06:58:32.331Z,101759.94
2019-02-12T07:01:00.400Z,101769.89
2019-02-12T07:04:10.817Z,101777.27
2019-02-12T07:07:47.504Z,101766.89
2019-02-12T07:10:32.214Z,101776.16
2019-02-12T07:13:36.793Z,101774.18
2019-02-12T07:16:47.447Z,101777.17
2019-02-12T07:20:01.327Z,101780.14
2019-02-12T07:23:35.716Z,101784.56
2019-02-12T07:26:54.044Z,101784.74
2019-02-12T07:30:01.129Z,101789.71
2019-02-12T07:32:46.068Z,101795.36
2019-02-12T07:36:15.472Z,101797.49
2019-02-12T07:39:25.306Z,101805.50
2019-02-12T07:42:51.378Z,101810.13
2019-02-12T07:46:19.609Z,101816.98
2019-02-12T07:49:29.119Z,101820.27
2019-02-12T07:52:44.712Z,101821.10
2019-02-12T07:56:19.245Z,101827.50
2019-02-12T07:59:31.766Z,101830.47
2019-02-12T08:03:13.211Z,101826.37
2019-02-12T08:06:54.647Z,101834.08
2019-02-12T08:10:29.448Z,101833.98
2019-02-12T08:13:51.602Z,101846.81
2019-02-12T08:16:46.457Z,101853.80
2019-02-12T08:20:34.078Z,101862.83
2019-02-12T08:24:08.706Z,101863.08
2019-02-12T08:27:36.885Z,101875.63
2019-02-12T08:30:41.272Z,101872.33
2019-02-12T08:34:01.729Z,101871.92
2019-02-12T08:37:10.009Z,101874.06
2019-02-12T08:40:16.527Z,101877.37
2019-02-12T08:43:24.680Z,101887.42
2019-02-12T08:46:54.313Z,101893.66
2019-02-12T08:49:49.282Z,101898.30
2019-02-12T08:53:24.708Z,101900.43
2019-02-12T08:56:22.238Z,101896.35
2019-02-12T08:59:47.238Z,101903.06
2019-02-12T09:03:09.191Z,101907.70
2019-02-12T09:06:39.027Z,101908.99
2019-02-12T09:10:02.020Z,101906.03
2019-02-12T09:12:55.878Z,101909.83
2019-02-12T09:16:37.948Z,101914.16
2019-02-12T09:20:17.387Z,101909.26
2019-02-12T09:24:03.456Z,101907.44
2019-02-12T09:27:14.489Z,101908.59
2019-02-12T09:30:27.754Z,101905.08
2019-02-12T09:33:28.487Z,101906.03
2019-02-12T09:36:48.764Z,101919.72
2019-02-12T09:40:24.242Z,101916.56
2019-02-12T09:44:01.487Z,101922.80
2019-02-12T09:47:46.295Z,101924.27
2019-02-12T09:51:20.501Z,101918.59
2019-02-12T09:55:01.492Z,101913.22
2019-02-12T09:58:30.131Z,101925.66
2019-02-12T10:01:19.801Z,101931.50
2019-02-12T10:04:28.654Z,101935.58
2019-02-12T10:07:59.008Z,101942.70
2019-02-12T10:11:47.130Z,101948.33
2019-02-12T10:15:10.185Z,101954.26
2019-02-12T10:18:52.456Z,101955.69
2019-02-12T10:22:43.167Z,101951.31
2019-02-12T10:25:40.321Z,101960.71
2019-02-12T10:29:21.758Z,101958.57
2019-02-12T10:31:49.431Z,101965.57
2019-02-12T10:34:17.464Z,101964.18
2019-02-12T10:36:45.507Z,101962.66
2019-02-12T10:39:15.054Z,101963.23
2019-02-12T10:41:43.128Z,101957.62
2019-02-12T10:44:11.640Z,101959.16
2019-02-12T10:46:40.878Z,101965.80
2019-02-12T10:49:09.282Z,101972.77
2019-02-12T10:51:37.376Z,101967.21
2019-02-12T10:54:05.740Z,101972.72
2019-02-12T10:56:34.162Z,101975.72
2019-02-12T10:59:02.231Z,101977.97
2019-02-12T11:01:30.283Z,101971.06
2019-02-12T11:03:59.062Z,101974.88
2019-02-12T11:06:27.201Z,101971.88
2019-02-12T11:08:55.248Z,101973.44
2019-02-12T11:11:23.413Z,101971.30
2019-02-12T11:13:51.538Z,101962.94
2019-02-12T11:16:19.621Z,101962.72
2019-02-12T11:18:48.047Z,101965.78
2019-02-12T11:21:16.154Z,101962.44
2019-02-12T11:23:44.203Z,101966.80
2019-02-12T11:26:12.295Z,101967.59
2019-02-12T11:28:41.181Z,101963.73
2019-02-12T11:31:09.243Z,101959.05
2019-02-12T11:33:37.500Z,101955.45
2019-02-12T11:36:05.680Z,101962.84
2019-02-12T11:38:34.294Z,101956.63
2019-02-12T11:41:02.381Z,101965.30
2019-02-12T11:43:30.775Z,101963.14
2019-02-12T11:45:58.839Z,101959.97
2019-02-12T11:48:26.878Z,101961.16
2019-02-12T11:50:54.945Z,101962.67
2019-02-12T11:53:23.854Z,101964.69
2019-02-12T11:55:51.932Z,101967.15
2019-02-12T11:58:19.963Z,101968.70
2019-02-12T12:00:52.745Z,101971.19
2019-02-12T12:03:21.170Z,101965.31
2019-02-12T12:05:49.234Z,101960.20
2019-02-12T12:08:17.321Z,101957.47
2019-02-12T12:10:45.373Z,101960.61
2019-02-12T12:13:13.414Z,101959.63
2019-02-12T12:15:41.479Z,101959.36
2019-02-12T12:18:09.603Z,101954.45
2019-02-12T12:20:37.641Z,101958.13
2019-02-12T12:23:05.687Z,101961.83
2019-02-12T12:25:33.872Z,101954.27
2019-02-12T12:28:01.944Z,101949.05
2019-02-12T12:30:29.999Z,101957.23
2019-02-12T12:32:58.048Z,101946.90
2019-02-12T12:35:26.111Z,101953.56
2019-02-12T12:37:54.179Z,101948.47
2019-02-12T12:40:22.534Z,101953.86
2019-02-12T12:42:50.588Z,101951.36
2019-02-12T12:45:18.781Z,101947.64
2019-02-12T12:47:46.838Z,101943.22
2019-02-12T12:50:14.918Z,101949.02
2019-02-12T12:52:43.054Z,101939.38
2019-02-12T12:55:11.254Z,101945.92
2019-02-12T12:57:42.020Z,101945.49
2019-02-12T13:00:10.917Z,101938.25
2019-02-12T13:02:40.549Z,101937.77
2019-02-12T13:05:08.952Z,101933.80
2019-02-12T13:07:38.070Z,101933.02
2019-02-12T13:10:09.352Z,101937.06
2019-02-12T13:12:47.311Z,101934.20
2019-02-12T13:15:17.714Z,101928.61
2019-02-12T13:17:45.777Z,101923.88
2019-02-12T13:20:22.850Z,101922.70
2019-02-12T13:22:51.287Z,101922.31
2019-02-12T13:25:19.893Z,101914.42
2019-02-12T13:27:47.981Z,101913.98
2019-02-12T13:30:16.167Z,101918.85
2019-02-12T13:32:44.335Z,101914.06
2019-02-12T13:35:12.818Z,101915.88
2019-02-12T13:37:40.905Z,101914.36
2019-02-12T13:40:10.335Z,101911.72
2019-02-12T13:42:38.603Z,101911.55
2019-02-12T13:45:09.615Z,101911.99
2019-02-12T13:47:39.447Z,101909.95
2019-02-12T13:50:08.512Z,101911.03
2019-02-12T13:52:36.629Z,101916.53
2019-02-12T13:55:06.122Z,101917.51
2019-02-12T13:57:34.392Z,101915.98
2019-02-12T14:00:05.138Z,101916.95
2019-02-12T14:02:34.846Z,101916.65
2019-02-12T14:05:03.951Z,101913.31
2019-02-12T14:07:32.369Z,101916.52
2019-02-12T14:10:01.768Z,101924.81
2019-02-12T14:12:32.005Z,101924.84
2019-02-12T14:15:00.259Z,101926.73
2019-02-12T14:17:28.456Z,101929.54
2019-02-12T14:19:56.860Z,101933.12
2019-02-12T14:22:24.974Z,101931.45
2019-02-12T14:24:53.130Z,101928.05
2019-02-12T14:27:22.370Z,101931.80
2019-02-12T14:29:50.516Z,101933.27
2019-02-12T14:32:18.616Z,101940.10
2019-02-12T14:34:46.647Z,101933.23
2019-02-12T14:37:14.750Z,101939.77
2019-02-12T14:39:42.820Z,101936.56
2019-02-12T14:42:10.905Z,101940.79
2019-02-12T14:44:38.966Z,101937.59
2019-02-12T14:47:07.166Z,101946.36
2019-02-12T14:49:35.226Z,101947.23
2019-02-12T14:52:03.648Z,101955.59
2019-02-12T14:54:31.697Z,101949.45
2019-02-12T14:56:59.795Z,101954.20
2019-02-12T14:59:27.862Z,101953.07
2019-02-12T15:01:56.107Z,101955.30
2019-02-12T15:04:24.163Z,101956.41
2019-02-12T15:06:52.643Z,101954.98
2019-02-12T15:09:21.618Z,101953.47
2019-02-12T15:11:50.304Z,101946.93
2019-02-12T15:14:18.463Z,101944.09
2019-02-12T15:16:46.572Z,101956.05
2019-02-12T15:19:16.521Z,101953.56
2019-02-12T15:21:44.664Z,101953.66
2019-02-12T15:24:12.850Z,101953.47
2019-02-12T15:26:41.516Z,101953.25
2019-02-12T15:29:10.098Z,101956.86
2019-02-12T15:31:39.710Z,101951.69
2019-02-12T15:34:07.926Z,101943.37
2019-02-12T15:36:36.573Z,101950.42
2019-02-12T15:39:06.450Z,101945.33
2019-02-12T15:41:34.770Z,101942.27
2019-02-12T15:44:03.368Z,101943.95
2019-02-12T15:46:31.538Z,101937.54
2019-02-12T15:48:59.618Z,101935.54
2019-02-12T15:51:27.769Z,101931.61
2019-02-12T15:53:55.976Z,101930.56
2019-02-12T15:56:24.162Z,101929.13
2019-02-12T15:58:53.682Z,101926.96
2019-02-12T16:01:21.993Z,101927.22
2019-02-12T16:03:50.241Z,101923.65
2019-02-12T16:06:19.289Z,101933.43
2019-02-12T16:08:48.792Z,101925.56
2019-02-12T16:11:19.068Z,101925.82
2019-02-12T16:13:47.919Z,101922.50
2019-02-12T16:16:16.328Z,101918.66
2019-02-12T16:18:46.021Z,101916.65
2019-02-12T16:21:14.858Z,101925.69
2019-02-12T16:23:43.322Z,101925.10
2019-02-12T16:26:11.477Z,101931.28
2019-02-12T16:28:40.157Z,101933.08
2019-02-12T16:31:08.234Z,101934.11
2019-02-12T16:33:36.333Z,101925.31
2019-02-12T16:36:04.426Z,101922.08
2019-02-12T16:38:32.518Z,101922.20
2019-02-12T16:41:01.064Z,101925.90
2019-02-12T16:43:29.206Z,101929.45
2019-02-12T16:46:05.400Z,101933.36
2019-02-12T16:48:33.506Z,101934.17
2019-02-12T16:51:01.540Z,101937.71
2019-02-12T16:53:29.744Z,101943.52
2019-02-12T16:55:57.895Z,101951.93
2019-02-12T16:58:25.977Z,101956.03
2019-02-12T17:00:54.078Z,101956.56
2019-02-12T17:03:22.202Z,101957.48
2019-02-12T17:05:50.303Z,101960.65
2019-02-12T17:08:18.459Z,101963.70
2019-02-12T17:10:46.707Z,101966.39
2019-02-12T17:13:14.863Z,101970.86
2019-02-12T17:15:43.021Z,101970.94
2019-02-12T17:18:12.244Z,101981.09
2019-02-12T17:20:40.343Z,101977.83
2019-02-12T17:23:08.476Z,101988.90
2019-02-12T17:25:36.654Z,101999.63
2019-02-12T17:28:04.933Z,101997.27
2019-02-12T17:30:33.084Z,101993.63
2019-02-12T17:33:01.272Z,101993.28
2019-02-12T17:35:29.475Z,101992.50
2019-02-12T17:37:57.639Z,101984.72
2019-02-12T17:40:25.762Z,101981.32
2019-02-12T17:42:55.555Z,101984.27
2019-02-12T17:45:23.827Z,101985.64
2019-02-12T17:47:52.007Z,101991.30
2019-02-12T17:50:20.488Z,101992.95
2019-02-12T17:52:48.757Z,101994.72
2019-02-12T17:55:19.660Z,101999.09
2019-02-12T17:57:48.855Z,102006.09
2019-02-12T18:00:19.557Z,102010.13
2019-02-12T18:02:47.779Z,102011.08
2019-02-12T18:05:15.923Z,102018.71
2019-02-12T18:07:44.208Z,102019.55
2019-02-12T18:10:12.625Z,102016.95
2019-02-12T18:12:40.790Z,102015.66
2019-02-12T18:15:09.946Z,102020.41
2019-02-12T18:17:38.469Z,102024.31
2019-02-12T18:20:07.834Z,102026.08
2019-02-12T18:22:35.969Z,102029.05
2019-02-12T18:25:07.570Z,102038.98
2019-02-12T18:27:35.634Z,102035.44
2019-02-12T18:30:05.901Z,102042.60
2019-02-12T18:32:34.347Z,102043.23
2019-02-12T18:35:03.248Z,102034.84
2019-02-12T18:37:31.330Z,102036.91
2019-02-12T18:39:59.432Z,102041.53
2019-02-12T18:42:27.632Z,102043.09
2019-02-12T18:44:55.733Z,102042.14
2019-02-12T18:47:24.046Z,102046.76
2019-02-12T18:49:52.135Z,102047.88
2019-02-12T18:52:23.009Z,102042.56
2019-02-12T18:54:51.376Z,102034.95
2019-02-12T18:57:20.352Z,102035.20
2019-02-12T18:59:48.692Z,102035.81
2019-02-12T19:02:17.341Z,102038.23
2019-02-12T19:04:45.719Z,102033.66
2019-02-12T19:07:13.840Z,102039.04
2019-02-12T19:09:43.530Z,102042.72
2019-02-12T19:12:11.688Z,102050.95
2019-02-12T19:14:39.903Z,102049.52
2019-02-12T19:17:08.104Z,102047.20
2019-02-12T19:19:36.349Z,102049.66
2019-02-12T19:22:04.528Z,102034.96
2019-02-12T19:24:32.807Z,102043.74
2019-02-12T19:27:01.396Z,102041.84
2019-02-12T19:29:29.473Z,102046.48
2019-02-12T19:31:59.322Z,102046.25
2019-02-12T19:34:27.636Z,102049.03
2019-02-12T19:36:56.029Z,102047.41
2019-02-12T19:39:25.362Z,102041.09
2019-02-12T19:41:53.372Z,102051.17
2019-02-12T19:44:21.629Z,102057.75
2019-02-12T19:46:49.726Z,102058.88
2019-02-12T19:49:18.151Z,102059.97
2019-02-12T19:51:46.316Z,102063.55
2019-02-12T19:54:15.170Z,102058.45
2019-02-12T19:56:43.959Z,102060.75
2019-02-12T19:59:12.103Z,102067.39
2019-02-12T20:01:40.621Z,102070.99
2019-02-12T20:04:08.746Z,102071.13
2019-02-12T20:06:38.039Z,102070.38
2019-02-12T20:09:13.347Z,102072.23
2019-02-12T20:11:41.676Z,102062.91
2019-02-12T20:14:09.733Z,102064.47
2019-02-12T20:16:38.411Z,102050.42
2019-02-12T20:19:06.760Z,102053.61
2019-02-12T20:21:34.954Z,102059.81
2019-02-12T20:24:04.871Z,102058.22
2019-02-12T20:26:33.145Z,102049.20
2019-02-12T20:29:03.289Z,102059.66
2019-02-12T20:31:32.023Z,102053.43
2019-02-12T20:34:00.203Z,102051.43
2019-02-12T20:36:28.332Z,102054.57
2019-02-12T20:38:56.503Z,102060.22
2019-02-12T20:41:24.814Z,102069.81
2019-02-12T20:43:52.869Z,102079.89
2019-02-12T20:46:21.174Z,102085.16
2019-02-12T20:48:49.343Z,102087.44
2019-02-12T20:51:17.460Z,102084.17
2019-02-12T20:53:46.609Z,102087.68
2019-02-12T20:56:14.710Z,102096.89
2019-02-12T20:58:42.759Z,102091.08
2019-02-12T21:01:11.097Z,102088.66
2019-02-12T21:03:39.509Z,102087.90
2019-02-12T21:06:09.278Z,102088.41
2019-02-12T21:08:37.528Z,102092.00
2019-02-12T21:11:06.889Z,102097.81
2019-02-12T21:13:35.046Z,102091.84
2019-02-12T21:16:03.247Z,102093.75
2019-02-12T21:18:31.405Z,102097.69
2019-02-12T21:21:01.302Z,102097.47
2019-02-12T21:23:29.671Z,102105.38
2019-02-12T21:25:57.953Z,102111.64
2019-02-12T21:28:26.118Z,102105.83
2019-02-12T21:30:54.237Z,102102.47
2019-02-12T21:33:22.460Z,102101.77
2019-02-12T21:35:51.801Z,102101.38
2019-02-12T21:38:20.401Z,102101.77
2019-02-12T21:40:48.554Z,102095.75
2019-02-12T21:43:16.937Z,102093.69
2019-02-12T21:45:45.162Z,102088.63
2019-02-12T21:48:13.684Z,102092.60
2019-02-12T21:50:42.953Z,102097.10
2019-02-12T21:53:11.400Z,102094.17
2019-02-12T21:55:39.536Z,102093.58
2019-02-12T21:58:09.231Z,102100.05
2019-02-12T22:00:37.327Z,102093.70
2019-02-12T22:03:05.538Z,102102.00
2019-02-12T22:05:33.623Z,102104.72
2019-02-12T22:08:01.823Z,102113.03
2019-02-12T22:10:30.052Z,102122.09
2019-02-12T22:12:58.344Z,102122.63
2019-02-12T22:15:26.442Z,102116.27
2019-02-12T22:17:54.520Z,102114.67
2019-02-12T22:20:22.961Z,102117.92
2019-02-12T22:22:51.122Z,102118.53
2019-02-12T22:25:19.391Z,102120.09
2019-02-12T22:27:47.653Z,102124.09
2019-02-12T22:30:18.087Z,102122.95
2019-02-12T22:32:47.599Z,102127.79
2019-02-12T22:35:15.667Z,102121.47
2019-02-12T22:37:43.772Z,102116.02
2019-02-12T22:40:12.836Z,102113.58
2019-02-12T22:42:40.928Z,102112.37
2019-02-12T22:45:12.920Z,102109.39
2019-02-12T22:47:41.102Z,102106.80
2019-02-12T22:50:11.939Z,102108.52
2019-02-12T22:52:40.469Z,102112.86
2019-02-12T22:55:08.654Z,102110.80
2019-02-12T22:57:36.742Z,102107.53
2019-02-12T23:00:30.452Z,102111.98
2019-02-12T23:03:00.448Z,102110.84
2019-02-12T23:05:28.563Z,102105.70
2019-02-12T23:07:58.261Z,102111.02
2019-02-12T23:10:26.305Z,102108.44
2019-02-12T23:12:56.011Z,102104.55
2019-02-12T23:15:25.663Z,102114.91
2019-02-12T23:17:53.755Z,102106.76
2019-02-12T23:20:21.817Z,102116.72
2019-02-12T23:22:51.579Z,102117.60
2019-02-12T23:25:19.650Z,102107.33
2019-02-12T23:27:47.877Z,102104.81
2019-02-12T23:30:16.026Z,102099.19
2019-02-12T23:32:44.415Z,102096.28
2019-02-12T23:35:13.522Z,102094.08
2019-02-12T23:37:41.701Z,102079.97
2019-02-12T23:40:09.777Z,102090.77
2019-02-12T23:42:37.961Z,102096.02
2019-02-12T23:45:07.058Z,102096.55
2019-02-12T23:47:35.134Z,102090.34
2019-02-12T23:50:03.632Z,102091.36
2019-02-12T23:52:31.728Z,102091.50
2019-02-12T23:54:59.905Z,102100.63
2019-02-12T23:57:29.360Z,102101.58
2019-02-12T23:59:57.424Z,102099.13
